EIME

Casement Air Base Airport

Baldonnel, Ireland
METAR EIME 161000Z 25013KT 9999 FEW008 BKN070 03/02 Q1020
Observed Flight Rules
Dec-16 @ 10:00 UTC (55 minutes ago) Visual Flight Rules
Wind Visibility Clouds
250° at 13 knots 10,000+ meters
  • Few at 800' AGL
  • Broken at 7,000' AGL
Temperatures Readings
Current 3°C / 37°F
Dewpoint 2°C / 36°F
Humidity 93%
Altimeter 30.12" Hg
Pressure 1020 hPa
Elevation 93
METAR EIME 161000Z 25013KT 9999 FEW008 BKN070 03/02 Q1020
Observed Flight Rules
Dec-16 @ 10:00 UTC
(55 minutes ago)
VFR
Wind Visibility
250° at 13 knots 10,000+ meters
Clouds
  • Few at 800' AGL
  • Broken at 7,000' AGL
Temperature Dewpoint
3°C / 37°F 2°C / 36°F
Humidity Altimeter Pressure
93% 30.12" Hg 1020 hPa